Time;durP1;ratioP1;P1;durP2;ratioP2;P2;SDS_P1;SDS_P2;PMS_P1;PMS_P2;Temp;Humidity;BMP_temperature;BMP_pressure;BME280_temperature;BME280_humidity;BME280_pressure;Samples;Min_cycle;Max_cycle;Signal;HPM_P1;HPM_P2
2023/07/08 00:00:22;;;;;;;;;;;;;;;19.56;34.92;101093.81;4917937;28;98271;-65
2023/07/08 00:02:48;;;;;;;;;;;;;;;19.51;34.95;101093.16;4937929;28;98291;-65
2023/07/08 00:05:18;;;;;;;;;;;;;;;19.48;35.12;101093.78;4925419;28;98292;-65
2023/07/08 00:07:45;;;;;;;;;;;;;;;19.42;35.05;101097.75;4922361;28;99924;-65
2023/07/08 00:10:10;;;;;;;;;;;;;;;19.37;35.05;101093.22;4934651;28;98411;-65
2023/07/08 00:12:37;;;;;;;;;;;;;;;19.33;34.95;101093.03;4949499;28;98088;-66
2023/07/08 00:15:04;;;;;;;;;;;;;;;19.29;35.13;101088.50;4919296;28;98277;-71
2023/07/08 00:17:31;;;;;;;;;;;;;;;19.25;35.09;101085.56;4925591;28;99118;-72
2023/07/08 00:19:58;;;;;;;;;;;;;;;19.24;35.20;101083.16;4925448;28;98193;-65
2023/07/08 00:22:25;;;;;;;;;;;;;;;19.19;35.20;101078.63;4922538;28;98056;-71
2023/07/08 00:24:51;;;;;;;;;;;;;;;19.15;35.12;101080.38;4924505;28;99326;-65
2023/07/08 00:27:18;;;;;;;;;;;;;;;19.11;35.21;101079.38;4944561;28;98445;-71
2023/07/08 00:29:44;;;;;;;;;;;;;;;19.07;35.28;101078.38;4925298;28;98490;-72
2023/07/08 00:32:14;;;;;;;;;;;;;;;19.02;35.38;101082.03;4927130;28;98081;-66
2023/07/08 00:34:41;;;;;;;;;;;;;;;18.98;35.28;101077.50;4926443;28;98176;-71
2023/07/08 00:37:16;;;;;;;;;;;;;;;18.94;35.06;101085.50;4925741;28;97990;-71
2023/07/08 00:39:43;;;;;;;;;;;;;;;18.89;35.30;101082.88;4936031;28;98293;-72
2023/07/08 00:42:27;;;;;;;;;;;;;;;18.84;35.27;101085.75;4932566;28;98116;-66
2023/07/08 00:44:55;;;;;;;;;;;;;;;18.77;35.08;101088.88;4926036;28;99472;-72
2023/07/08 00:47:21;;;;;;;;;;;;;;;18.73;35.35;101087.88;4924694;28;98823;-66
2023/07/08 00:49:55;;;;;;;;;;;;;;;18.69;35.35;101094.25;4936408;28;98977;-72
2023/07/08 00:52:26;;;;;;;;;;;;;;;18.66;35.47;101090.19;4944418;28;98370;-67
2023/07/08 00:54:54;;;;;;;;;;;;;;;18.62;35.30;101092.72;4925039;28;98360;-72
2023/07/08 00:57:21;;;;;;;;;;;;;;;18.59;35.38;101095.28;4926143;28;99723;-66
2023/07/08 00:59:55;;;;;;;;;;;;;;;18.54;35.45;101096.16;4928940;28;101128;-66
2023/07/08 01:02:22;;;;;;;;;;;;;;;18.51;35.28;101098.69;4940453;28;98038;-66
2023/07/08 01:05:10;;;;;;;;;;;;;;;18.50;35.37;101097.09;4939684;28;98807;-66
2023/07/08 01:07:36;;;;;;;;;;;;;;;18.44;35.30;101103.78;4921789;28;98242;-72
2023/07/08 01:10:06;;;;;;;;;;;;;;;18.37;35.42;101096.81;4923855;28;100592;-66
2023/07/08 01:12:34;;;;;;;;;;;;;;;18.34;35.36;101094.69;4923553;28;98116;-66
2023/07/08 01:15:02;;;;;;;;;;;;;;;18.32;35.44;101090.66;4940108;28;98512;-66
2023/07/08 01:17:32;;;;;;;;;;;;;;;18.26;35.46;101091.84;4940964;28;98400;-65
2023/07/08 01:20:13;;;;;;;;;;;;;;;18.22;35.46;101091.66;4925209;28;99194;-72
2023/07/08 01:22:39;;;;;;;;;;;;;;;18.19;35.46;101084.06;4925613;28;98155;-65
2023/07/08 01:25:06;;;;;;;;;;;;;;;18.18;35.41;101087.09;4924034;28;98148;-66
2023/07/08 01:27:34;;;;;;;;;;;;;;;18.14;35.40;101089.63;4925942;28;97990;-65
2023/07/08 01:30:01;;;;;;;;;;;;;;;18.11;35.62;101085.59;4920727;28;100722;-71
2023/07/08 01:32:28;;;;;;;;;;;;;;;18.10;35.44;101085.91;4918843;28;98280;-71
2023/07/08 01:35:00;;;;;;;;;;;;;;;18.06;35.61;101087.63;4925550;28;98243;-66
2023/07/08 01:38:00;;;;;;;;;;;;;;;18.03;35.54;101086.28;4917980;28;98181;-71
2023/07/08 01:40:31;;;;;;;;;;;;;;;17.97;35.58;101092.97;4907802;28;98274;-71
2023/07/08 01:42:57;;;;;;;;;;;;;;;17.95;35.62;101088.91;4955019;28;98236;-71
2023/07/08 01:45:26;;;;;;;;;;;;;;;17.93;35.64;101082.97;4937669;28;98184;-72
2023/07/08 01:47:55;;;;;;;;;;;;;;;17.91;35.61;101088.72;4919361;28;98544;-65
2023/07/08 01:50:21;;;;;;;;;;;;;;;17.88;35.48;101083.84;4924172;28;97982;-71
2023/07/08 01:52:48;;;;;;;;;;;;;;;17.86;35.48;101075.97;4921856;28;98148;-72
2023/07/08 01:55:15;;;;;;;;;;;;;;;17.84;35.47;101089.13;4916538;28;98198;-65
2023/07/08 01:57:41;;;;;;;;;;;;;;;17.80;35.64;101079.09;4925993;28;98661;-66
2023/07/08 02:00:08;;;;;;;;;;;;;;;17.82;35.54;101087.78;4921649;28;98854;-71
2023/07/08 02:02:35;;;;;;;;;;;;;;;17.87;35.51;101082.25;4923099;28;98134;-65
2023/07/08 02:05:01;;;;;;;;;;;;;;;17.94;35.59;101079.13;4922027;28;99738;-66
2023/07/08 02:07:27;;;;;;;;;;;;;;;17.98;35.71;101086.41;4923520;28;98168;-68
2023/07/08 02:09:54;;;;;;;;;;;;;;;18.01;35.62;101085.00;4937118;28;99148;-72
2023/07/08 02:12:20;;;;;;;;;;;;;;;18.02;35.62;101084.69;4922448;28;98021;-72
2023/07/08 02:14:47;;;;;;;;;;;;;;;18.03;35.73;101083.56;4923259;28;99392;-72
2023/07/08 02:17:16;;;;;;;;;;;;;;;18.01;35.56;101080.34;4944056;28;98899;-72
2023/07/08 02:19:43;;;;;;;;;;;;;;;18.00;35.65;101081.47;4923263;28;97966;-65
2023/07/08 02:22:10;;;;;;;;;;;;;;;18.01;35.76;101074.88;4925248;28;98155;-72
2023/07/08 02:24:36;;;;;;;;;;;;;;;18.01;35.83;101068.63;4920672;28;98013;-65
2023/07/08 02:27:04;;;;;;;;;;;;;;;17.99;35.65;101079.81;4922379;28;98555;-72
2023/07/08 02:29:32;;;;;;;;;;;;;;;17.98;35.75;101075.50;4933599;28;98051;-72
2023/07/08 02:31:58;;;;;;;;;;;;;;;17.96;35.88;101076.88;4924401;28;98745;-65
2023/07/08 02:34:25;;;;;;;;;;;;;;;17.94;35.87;101081.84;4923770;28;99417;-65
2023/07/08 02:36:51;;;;;;;;;;;;;;;17.90;35.82;101079.72;4923172;28;98343;-65
2023/07/08 02:39:17;;;;;;;;;;;;;;;17.88;35.90;101073.78;4917146;28;98614;-65
2023/07/08 02:41:44;;;;;;;;;;;;;;;17.85;35.99;101066.19;4920908;28;98040;-65
2023/07/08 02:44:11;;;;;;;;;;;;;;;17.82;35.90;101065.97;4923162;28;99359;-64
2023/07/08 02:46:37;;;;;;;;;;;;;;;17.75;35.97;101066.38;4935291;28;98161;-65
2023/07/08 02:49:04;;;;;;;;;;;;;;;17.70;35.89;101068.38;4938372;28;98187;-71
2023/07/08 02:51:30;;;;;;;;;;;;;;;17.67;36.03;101069.75;4939650;28;98055;-65
2023/07/08 02:53:57;;;;;;;;;;;;;;;17.64;36.04;101067.63;4925617;28;98883;-72
2023/07/08 02:56:23;;;;;;;;;;;;;;;17.62;35.96;101067.13;4925693;28;98559;-65
2023/07/08 02:58:49;;;;;;;;;;;;;;;17.60;35.90;101074.78;4920186;28;98548;-71
2023/07/08 03:01:17;;;;;;;;;;;;;;;17.56;35.98;101062.88;4937133;28;98824;-65
2023/07/08 03:03:44;;;;;;;;;;;;;;;17.52;36.12;101072.75;4934821;28;99257;-64
2023/07/08 03:06:11;;;;;;;;;;;;;;;17.48;35.93;101077.19;4921108;28;98740;-72
2023/07/08 03:08:37;;;;;;;;;;;;;;;17.43;35.98;101067.19;4938107;28;98308;-64
2023/07/08 03:11:05;;;;;;;;;;;;;;;17.38;35.96;101059.09;4931884;28;98374;-64
2023/07/08 03:13:32;;;;;;;;;;;;;;;17.34;36.13;101064.34;4939705;28;98041;-65
2023/07/08 03:15:59;;;;;;;;;;;;;;;17.29;36.18;101064.44;4926617;27;98015;-65
2023/07/08 03:18:26;;;;;;;;;;;;;;;17.26;36.13;101065.03;4936408;28;98109;-64
2023/07/08 03:20:52;;;;;;;;;;;;;;;17.24;36.02;101059.06;4924849;28;98209;-71
2023/07/08 03:23:19;;;;;;;;;;;;;;;17.23;35.98;101057.44;4928609;27;98393;-65
2023/07/08 03:25:45;;;;;;;;;;;;;;;17.24;36.05;101058.25;4941653;28;98686;-64
2023/07/08 03:28:12;;;;;;;;;;;;;;;17.20;35.97;101059.94;4925265;27;99383;-65
2023/07/08 03:30:39;;;;;;;;;;;;;;;17.14;36.04;101057.31;4939949;27;98601;-66
2023/07/08 03:33:06;;;;;;;;;;;;;;;17.13;36.02;101057.59;4927120;28;98168;-71
2023/07/08 03:35:33;;;;;;;;;;;;;;;17.12;36.18;101064.16;4928202;28;99041;-65
2023/07/08 03:38:02;;;;;;;;;;;;;;;17.09;36.02;101065.53;4933297;27;98071;-71
2023/07/08 03:40:28;;;;;;;;;;;;;;;17.07;36.12;101077.84;4930787;28;97936;-71
2023/07/08 03:42:54;;;;;;;;;;;;;;;17.06;36.03;101073.53;4928350;27;98036;-65
2023/07/08 03:45:21;;;;;;;;;;;;;;;17.07;36.13;101075.94;4929443;28;97913;-72
2023/07/08 03:47:47;;;;;;;;;;;;;;;17.10;36.10;101074.56;4941813;28;98112;-71
2023/07/08 03:50:22;;;;;;;;;;;;;;;17.11;36.22;101079.69;4927578;28;98224;-71
2023/07/08 03:52:49;;;;;;;;;;;;;;;17.14;36.02;101076.38;4929799;28;98206;-65
2023/07/08 03:55:15;;;;;;;;;;;;;;;17.17;35.97;101083.13;4924078;28;98658;-65
2023/07/08 03:57:42;;;;;;;;;;;;;;;17.18;36.03;101073.88;4943175;27;98219;-72
2023/07/08 04:00:14;;;;;;;;;;;;;;;17.20;36.00;101079.00;4929627;28;98128;-65
2023/07/08 04:02:44;;;;;;;;;;;;;;;17.24;35.95;101077.31;4943693;27;98542;-65
2023/07/08 04:05:16;;;;;;;;;;;;;;;17.28;36.01;101078.34;4927404;28;98168;-65
2023/07/08 04:07:42;;;;;;;;;;;;;;;17.32;36.03;101077.44;4941421;28;98076;-67
2023/07/08 04:10:09;;;;;;;;;;;;;;;17.34;35.90;101067.06;4922512;27;98061;-65
2023/07/08 04:12:36;;;;;;;;;;;;;;;17.38;35.93;101073.53;4945753;27;97907;-72
2023/07/08 04:15:03;;;;;;;;;;;;;;;17.45;35.84;101077.78;4947548;28;97863;-72
2023/07/08 04:17:30;;;;;;;;;;;;;;;17.48;35.99;101072.53;4925585;27;98137;-72
2023/07/08 04:19:56;;;;;;;;;;;;;;;17.52;36.03;101073.56;4929703;28;98880;-72
2023/07/08 04:22:23;;;;;;;;;;;;;;;17.57;35.88;101078.13;4930449;27;98050;-72
2023/07/08 04:24:50;;;;;;;;;;;;;;;17.63;35.85;101071.47;4930390;27;97877;-66
2023/07/08 04:27:17;;;;;;;;;;;;;;;17.70;35.86;101071.88;4926239;28;98311;-65
2023/07/08 04:29:43;;;;;;;;;;;;;;;17.78;35.92;101070.44;4928415;28;98920;-71
2023/07/08 04:32:10;;;;;;;;;;;;;;;17.84;35.92;101072.75;4930618;27;99299;-71
2023/07/08 04:34:36;;;;;;;;;;;;;;;17.91;35.78;101070.41;4936225;28;98143;-65
2023/07/08 04:37:04;;;;;;;;;;;;;;;18.00;35.97;101073.28;4932557;27;99054;-65
2023/07/08 04:39:30;;;;;;;;;;;;;;;18.08;35.91;101069.84;4945653;27;98034;-65
2023/07/08 04:41:57;;;;;;;;;;;;;;;18.18;35.70;101078.94;4928636;28;98305;-71
2023/07/08 04:44:24;;;;;;;;;;;;;;;18.24;35.84;101070.34;4928812;28;100206;-71
2023/07/08 04:46:50;;;;;;;;;;;;;;;18.30;35.79;101071.84;4926217;28;97902;-70
2023/07/08 04:49:17;;;;;;;;;;;;;;;18.37;35.95;101071.44;4936987;28;98442;-65
2023/07/08 04:51:44;;;;;;;;;;;;;;;18.47;35.87;101064.94;4941311;27;98987;-65
2023/07/08 04:54:11;;;;;;;;;;;;;;;18.54;35.62;101063.41;4921870;28;97970;-71
2023/07/08 04:56:37;;;;;;;;;;;;;;;18.63;35.85;101072.50;4928668;27;99249;-71
2023/07/08 04:59:08;;;;;;;;;;;;;;;18.72;35.66;101064.44;4945300;27;97955;-71
2023/07/08 05:01:35;;;;;;;;;;;;;;;18.82;35.76;101060.66;4929528;27;97967;-66
2023/07/08 05:04:02;;;;;;;;;;;;;;;18.90;35.79;101065.38;4945956;27;98199;-72
2023/07/08 05:06:29;;;;;;;;;;;;;;;19.01;35.70;101071.41;4926048;27;98836;-65
2023/07/08 05:08:55;;;;;;;;;;;;;;;19.13;35.48;101071.66;4923333;28;97959;-71
2023/07/08 05:11:21;;;;;;;;;;;;;;;19.26;35.46;101070.00;4928229;28;98191;-66
2023/07/08 05:13:48;;;;;;;;;;;;;;;19.41;35.36;101074.25;4945550;28;98296;-71
2023/07/08 05:16:14;;;;;;;;;;;;;;;19.63;35.42;101077.00;4943698;28;98264;-65
2023/07/08 05:18:41;;;;;;;;;;;;;;;19.83;35.26;101078.41;4941068;27;98748;-72
2023/07/08 05:21:08;;;;;;;;;;;;;;;20.05;35.23;101083.00;4918707;28;98270;-65
2023/07/08 05:23:34;;;;;;;;;;;;;;;20.24;35.13;101074.50;4926054;28;98125;-71
2023/07/08 05:26:02;;;;;;;;;;;;;;;20.44;34.81;101079.41;4925040;27;99831;-66
2023/07/08 05:28:28;;;;;;;;;;;;;;;20.64;35.06;101071.75;4919868;28;100135;-65
2023/07/08 05:30:55;;;;;;;;;;;;;;;20.83;34.99;101072.25;4943496;28;98410;-71
2023/07/08 05:33:26;;;;;;;;;;;;;;;21.04;34.86;101067.72;4939145;27;98716;-65
2023/07/08 05:35:53;;;;;;;;;;;;;;;21.26;34.67;101071.41;4939894;27;98328;-71
2023/07/08 05:38:19;;;;;;;;;;;;;;;21.48;34.66;101079.47;4917813;28;98013;-65
2023/07/08 05:40:50;;;;;;;;;;;;;;;21.71;34.62;101080.06;4924536;27;98809;-66
2023/07/08 05:43:17;;;;;;;;;;;;;;;21.97;34.62;101084.66;4919832;27;98226;-66
2023/07/08 05:45:43;;;;;;;;;;;;;;;22.22;34.54;101080.19;4944270;27;98171;-66
2023/07/08 05:48:10;;;;;;;;;;;;;;;22.46;34.33;101082.31;4924906;27;98626;-72
2023/07/08 05:50:36;;;;;;;;;;;;;;;22.74;34.49;101082.59;4919953;27;98359;-72
2023/07/08 05:53:02;;;;;;;;;;;;;;;23.03;34.30;101093.56;4924620;28;98100;-66
2023/07/08 05:55:28;;;;;;;;;;;;;;;23.37;34.50;101097.13;4914028;28;98241;-65
2023/07/08 05:57:55;;;;;;;;;;;;;;;23.72;34.23;101103.09;4935049;27;97927;-72
2023/07/08 06:00:21;;;;;;;;;;;;;;;24.12;34.08;101096.16;4939775;28;98906;-66
2023/07/08 06:02:47;;;;;;;;;;;;;;;24.53;34.10;101105.34;4939157;28;98137;-66
2023/07/08 06:05:14;;;;;;;;;;;;;;;24.95;33.98;101098.34;4928041;27;98219;-73
2023/07/08 06:07:40;;;;;;;;;;;;;;;25.41;33.80;101106.38;4943353;28;98409;-66
2023/07/08 06:10:07;;;;;;;;;;;;;;;25.87;33.83;101101.28;4941355;28;98141;-65
2023/07/08 06:12:33;;;;;;;;;;;;;;;26.34;33.91;101100.47;4923035;27;98506;-73
2023/07/08 06:15:01;;;;;;;;;;;;;;;26.96;33.80;101106.19;4923047;27;98442;-66
2023/07/08 06:17:27;;;;;;;;;;;;;;;28.71;32.12;101109.28;4937979;27;98584;-66
2023/07/08 06:19:53;;;;;;;;;;;;;;;28.90;32.54;101108.34;4925263;28;98757;-66
2023/07/08 06:22:20;;;;;;;;;;;;;;;28.95;32.95;101108.81;4924200;27;98147;-66
2023/07/08 06:24:50;;;;;;;;;;;;;;;29.48;32.96;101118.97;4940832;27;100021;-74
2023/07/08 06:27:16;;;;;;;;;;;;;;;30.16;32.52;101111.28;4941051;27;98268;-73
2023/07/08 06:29:45;;;;;;;;;;;;;;;30.59;32.65;101106.00;4939466;27;98701;-73
2023/07/08 06:32:11;;;;;;;;;;;;;;;31.04;32.59;101101.88;4936265;27;98289;-66
2023/07/08 06:34:38;;;;;;;;;;;;;;;31.76;32.36;101105.66;4937945;27;98409;-67
2023/07/08 06:37:04;;;;;;;;;;;;;;;32.67;31.75;101111.56;4924881;27;98441;-67
2023/07/08 06:39:31;;;;;;;;;;;;;;;33.19;31.54;101108.19;4937536;27;97987;-67
2023/07/08 06:41:57;;;;;;;;;;;;;;;34.07;30.83;101108.00;4921364;27;97896;-67
2023/07/08 06:44:25;;;;;;;;;;;;;;;35.15;30.51;101105.63;4927143;28;98914;-67
2023/07/08 06:46:52;;;;;;;;;;;;;;;35.05;30.69;101104.53;4940111;28;99498;-67
2023/07/08 06:49:19;;;;;;;;;;;;;;;34.64;31.12;101102.63;4925390;27;98110;-67
2023/07/08 06:51:45;;;;;;;;;;;;;;;34.51;31.65;101092.41;4926572;27;98197;-74
2023/07/08 06:54:12;;;;;;;;;;;;;;;34.56;31.40;101086.34;4919586;28;98344;-74
2023/07/08 06:56:39;;;;;;;;;;;;;;;34.67;31.27;101093.41;4923063;27;97977;-66
2023/07/08 06:59:06;;;;;;;;;;;;;;;34.75;31.41;101093.31;4935497;28;98452;-67
2023/07/08 07:01:33;;;;;;;;;;;;;;;34.80;31.28;101095.66;4922151;27;98627;-74
2023/07/08 07:03:59;;;;;;;;;;;;;;;35.01;31.41;101100.22;4922982;27;99507;-74
2023/07/08 07:06:26;;;;;;;;;;;;;;;35.40;30.81;101088.44;4924010;28;98132;-74
2023/07/08 07:08:52;;;;;;;;;;;;;;;35.79;30.84;101092.66;4924630;27;99245;-74
2023/07/08 07:11:19;;;;;;;;;;;;;;;36.19;30.70;101082.38;4920353;27;100035;-67
2023/07/08 07:13:46;;;;;;;;;;;;;;;36.60;30.55;101084.81;4941933;28;98218;-67
2023/07/08 07:16:12;;;;;;;;;;;;;;;37.01;29.95;101083.56;4942620;27;98092;-74
2023/07/08 07:18:38;;;;;;;;;;;;;;;37.23;30.26;101072.63;4926178;27;97939;-75
2023/07/08 07:21:04;;;;;;;;;;;;;;;37.35;30.61;101074.75;4929076;28;98377;-67
2023/07/08 07:23:31;;;;;;;;;;;;;;;37.50;30.39;101072.44;4917138;27;99377;-67
2023/07/08 07:25:57;;;;;;;;;;;;;;;37.81;29.82;101063.63;4927982;27;98549;-67
2023/07/08 07:28:24;;;;;;;;;;;;;;;38.17;30.33;101066.31;4928845;27;98235;-68
2023/07/08 07:30:57;;;;;;;;;;;;;;;38.47;29.85;101058.66;4925709;28;98225;-75
2023/07/08 07:33:24;;;;;;;;;;;;;;;38.68;29.69;101063.69;4926745;27;98094;-68
2023/07/08 07:35:50;;;;;;;;;;;;;;;38.85;29.83;101061.59;4922221;28;98914;-74
2023/07/08 07:38:17;;;;;;;;;;;;;;;39.00;29.54;101067.59;4943835;28;98442;-75
2023/07/08 07:40:44;;;;;;;;;;;;;;;39.18;29.90;101053.72;4926632;27;98515;-68
2023/07/08 07:43:10;;;;;;;;;;;;;;;39.43;29.77;101057.78;4926002;28;98350;-73
2023/07/08 07:45:36;;;;;;;;;;;;;;;39.76;29.42;101064.72;4921692;28;99498;-73
2023/07/08 07:48:03;;;;;;;;;;;;;;;40.02;29.44;101061.84;4940552;27;97980;-73
2023/07/08 07:50:29;;;;;;;;;;;;;;;40.39;29.34;101062.94;4922278;28;98258;-66
2023/07/08 07:52:55;;;;;;;;;;;;;;;40.87;29.01;101060.72;4938463;27;100271;-66
2023/07/08 07:55:22;;;;;;;;;;;;;;;41.39;28.83;101053.44;4924350;27;98309;-72
2023/07/08 07:57:48;;;;;;;;;;;;;;;41.97;28.62;101059.53;4905488;27;97924;-66
2023/07/08 08:00:14;;;;;;;;;;;;;;;42.48;28.26;101054.00;4925384;27;98261;-66
2023/07/08 08:02:43;;;;;;;;;;;;;;;42.81;28.03;101056.16;4926561;27;100669;-66
2023/07/08 08:05:10;;;;;;;;;;;;;;;43.33;28.14;101051.19;4942474;28;99680;-74
2023/07/08 08:07:36;;;;;;;;;;;;;;;43.76;28.00;101049.06;4925812;28;98487;-66
2023/07/08 08:10:03;;;;;;;;;;;;;;;44.12;27.89;101050.81;4925213;27;98411;-66
2023/07/08 08:12:29;;;;;;;;;;;;;;;44.68;27.65;101051.06;4939736;27;98267;-66
2023/07/08 08:14:55;;;;;;;;;;;;;;;45.18;27.35;101048.25;4926521;28;98535;-74
2023/07/08 08:17:22;;;;;;;;;;;;;;;45.69;27.28;101050.50;4928148;27;98506;-74
2023/07/08 08:19:49;;;;;;;;;;;;;;;46.32;27.01;101047.09;4925048;27;99271;-66
2023/07/08 08:22:15;;;;;;;;;;;;;;;46.88;26.74;101050.44;4928324;27;98563;-66
2023/07/08 08:24:41;;;;;;;;;;;;;;;47.37;26.42;101050.53;4926342;27;98907;-74
2023/07/08 08:27:07;;;;;;;;;;;;;;;47.71;26.30;101048.59;4919735;27;98518;-66
2023/07/08 08:29:34;;;;;;;;;;;;;;;48.14;26.34;101045.63;4926372;27;98308;-75
2023/07/08 08:32:01;;;;;;;;;;;;;;;48.62;26.23;101038.94;4924719;27;98547;-74
2023/07/08 08:34:28;;;;;;;;;;;;;;;49.03;26.19;101042.00;4926994;27;100707;-74
2023/07/08 08:36:55;;;;;;;;;;;;;;;49.35;26.28;101042.44;4927570;27;98033;-74
2023/07/08 08:39:21;;;;;;;;;;;;;;;49.60;26.14;101042.63;4925964;27;98104;-73
2023/07/08 08:41:48;;;;;;;;;;;;;;;49.62;26.18;101045.75;4925122;27;98020;-76
2023/07/08 08:44:16;;;;;;;;;;;;;;;49.74;26.23;101040.75;4920997;27;98336;-76
2023/07/08 08:47:17;;;;;;;;;;;;;;;50.00;26.35;101038.28;4922533;27;98270;-76
2023/07/08 08:49:54;;;;;;;;;;;;;;;50.63;25.86;101041.50;4959946;27;99411;-67
2023/07/08 08:52:21;;;;;;;;;;;;;;;51.03;25.48;101039.78;4924260;27;98248;-78
2023/07/08 08:54:51;;;;;;;;;;;;;;;51.16;26.02;101034.16;4925507;27;98305;-76
2023/07/08 08:57:35;;;;;;;;;;;;;;;51.27;26.19;101028.31;4925079;28;98159;-76
2023/07/08 09:00:03;;;;;;;;;;;;;;;51.44;26.12;101035.91;4961161;27;97961;-75
2023/07/08 09:02:42;;;;;;;;;;;;;;;51.66;25.76;101034.88;4920668;27;98170;-78
2023/07/08 09:05:14;;;;;;;;;;;;;;;51.80;25.63;101027.88;4936153;27;99271;-76
2023/07/08 09:08:05;;;;;;;;;;;;;;;52.06;25.82;101020.72;4938250;28;98227;-79
2023/07/08 09:10:44;;;;;;;;;;;;;;;52.26;25.68;101014.41;4940701;28;98274;-79
2023/07/08 09:13:23;;;;;;;;;;;;;;;52.38;25.70;101004.25;4932441;28;98044;-79
2023/07/08 09:15:58;;;;;;;;;;;;;;;52.45;25.77;101008.59;4922127;28;98277;-75
2023/07/08 09:18:32;;;;;;;;;;;;;;;52.05;26.01;101004.81;4919012;28;98049;-74
2023/07/08 09:20:59;;;;;;;;;;;;;;;52.50;25.80;101002.75;4921855;28;98210;-74
2023/07/08 09:23:30;;;;;;;;;;;;;;;52.03;25.55;101011.88;4921339;28;98255;-74
2023/07/08 09:26:12;;;;;;;;;;;;;;;51.10;26.80;101001.91;4937486;28;98730;-73
2023/07/08 09:28:44;;;;;;;;;;;;;;;50.18;26.94;100999.59;4917026;28;98157;-73
2023/07/08 09:31:31;;;;;;;;;;;;;;;49.52;27.48;100988.03;4916252;28;98599;-71
2023/07/08 09:34:16;;;;;;;;;;;;;;;49.19;27.57;100991.03;4934094;28;98251;-72
2023/07/08 09:36:44;;;;;;;;;;;;;;;49.20;27.53;100990.50;4940048;28;98146;-71
2023/07/08 09:39:16;;;;;;;;;;;;;;;49.41;27.36;100987.31;4937736;28;98213;-71
2023/07/08 09:41:43;;;;;;;;;;;;;;;49.62;26.88;100995.00;4916649;28;99898;-70
2023/07/08 09:44:17;;;;;;;;;;;;;;;49.95;26.60;100998.22;4935364;28;98320;-77
2023/07/08 09:46:44;;;;;;;;;;;;;;;50.33;26.38;100994.28;4947539;28;98069;-71
2023/07/08 09:49:16;;;;;;;;;;;;;;;50.25;26.44;100996.19;4915745;28;99172;-72
2023/07/08 09:51:42;;;;;;;;;;;;;;;50.29;26.34;100998.75;4916979;28;98270;-76
2023/07/08 09:54:09;;;;;;;;;;;;;;;50.97;25.98;100999.69;4932612;28;99673;-76
2023/07/08 09:56:36;;;;;;;;;;;;;;;51.17;25.81;101001.25;4922206;28;99108;-72
2023/07/08 09:59:04;;;;;;;;;;;;;;;51.35;26.08;100999.00;4935307;28;100335;-76
2023/07/08 10:01:31;;;;;;;;;;;;;;;51.60;25.75;100996.84;4919812;28;98733;-76
2023/07/08 10:04:04;;;;;;;;;;;;;;;52.06;25.57;100997.75;4921469;28;98240;-76
2023/07/08 10:06:32;;;;;;;;;;;;;;;52.03;25.29;100994.63;4936811;27;98262;-70
2023/07/08 10:09:06;;;;;;;;;;;;;;;52.25;25.08;100984.91;4925199;27;98321;-76
2023/07/08 10:11:41;;;;;;;;;;;;;;;52.26;25.53;100979.94;4921387;28;100127;-77
2023/07/08 10:14:28;;;;;;;;;;;;;;;51.55;25.67;100981.22;4926994;28;102097;-70
2023/07/08 10:16:54;;;;;;;;;;;;;;;51.26;25.81;100971.47;4938815;27;98451;-72
2023/07/08 10:19:21;;;;;;;;;;;;;;;51.50;25.76;100976.34;4923105;28;99441;-72
2023/07/08 10:21:58;;;;;;;;;;;;;;;51.91;25.30;100981.00;4919829;27;98042;-76
2023/07/08 10:24:55;;;;;;;;;;;;;;;52.36;25.13;100969.56;4950515;28;98319;-76
2023/07/08 10:27:32;;;;;;;;;;;;;;;52.57;25.54;100975.47;4907239;28;98583;-76
2023/07/08 10:30:21;;;;;;;;;;;;;;;52.55;25.21;100974.44;4933712;27;98624;-71
2023/07/08 10:32:54;;;;;;;;;;;;;;;52.61;25.15;100970.16;4939474;27;98273;-71
2023/07/08 10:35:35;;;;;;;;;;;;;;;52.72;25.37;100969.97;4935568;28;98124;-71
2023/07/08 10:38:14;;;;;;;;;;;;;;;52.82;25.46;100967.41;4919430;28;98241;-71
2023/07/08 10:40:48;;;;;;;;;;;;;;;52.74;25.17;100961.53;4937412;28;98096;-75
2023/07/08 10:43:31;;;;;;;;;;;;;;;52.14;25.63;100961.31;4939389;27;98237;-76
2023/07/08 10:46:16;;;;;;;;;;;;;;;50.59;27.10;100950.06;4918411;27;98276;-70
2023/07/08 10:48:45;;;;;;;;;;;;;;;51.89;25.61;100955.69;4936048;27;98115;-76
2023/07/08 10:51:14;;;;;;;;;;;;;;;50.57;26.72;100944.84;4947798;28;98226;-76
2023/07/08 10:53:59;;;;;;;;;;;;;;;50.37;26.53;100953.88;4932081;28;99052;-70
2023/07/08 10:56:40;;;;;;;;;;;;;;;51.25;26.12;100947.75;4954616;27;98156;-70
2023/07/08 10:59:19;;;;;;;;;;;;;;;51.39;26.00;100950.69;4950673;27;98154;-69
2023/07/08 11:02:17;;;;;;;;;;;;;;;51.30;25.77;100946.13;4941708;27;99381;-77
2023/07/08 11:05:29;;;;;;;;;;;;;;;51.09;25.72;100940.09;4935727;27;100289;-70
2023/07/08 11:08:04;;;;;;;;;;;;;;;51.06;26.07;100941.19;4942420;28;99440;-70
2023/07/08 11:10:54;;;;;;;;;;;;;;;51.25;25.82;100944.88;4944425;28;116664;-77
2023/07/08 11:13:23;;;;;;;;;;;;;;;51.41;25.74;100939.41;4934142;28;99290;-76
2023/07/08 11:15:59;;;;;;;;;;;;;;;51.22;25.63;100925.88;4912020;28;98384;-70
2023/07/08 11:18:42;;;;;;;;;;;;;;;51.11;25.77;100928.84;4936343;28;98622;-77
2023/07/08 11:21:14;;;;;;;;;;;;;;;50.99;25.73;100930.31;4932424;28;98776;-70
2023/07/08 11:24:04;;;;;;;;;;;;;;;50.88;25.97;100934.09;4931426;28;98333;-77
2023/07/08 11:26:37;;;;;;;;;;;;;;;50.86;25.86;100918.72;4954384;28;99539;-77
2023/07/08 11:29:05;;;;;;;;;;;;;;;50.63;25.85;100923.97;4935337;28;100462;-76
2023/07/08 11:31:32;;;;;;;;;;;;;;;50.08;26.36;100921.81;4933373;28;98252;-77
2023/07/08 11:33:59;;;;;;;;;;;;;;;50.12;26.36;100924.41;4918055;28;103484;-76
2023/07/08 11:36:28;;;;;;;;;;;;;;;49.57;26.62;100912.81;4933731;28;98400;-76
2023/07/08 11:38:57;;;;;;;;;;;;;;;48.66;27.27;100908.75;4915898;28;98400;-69
2023/07/08 11:41:26;;;;;;;;;;;;;;;47.89;27.59;100896.84;4919087;28;98209;-76
2023/07/08 11:44:05;;;;;;;;;;;;;;;47.20;27.68;100907.81;4938663;28;98205;-76
2023/07/08 11:46:38;;;;;;;;;;;;;;;46.76;28.08;100909.13;4779319;27;9999669;-69
2023/07/08 11:49:12;;;;;;;;;;;;;;;45.78;28.38;100910.13;4403568;28;10000285;-69
2023/07/08 11:51:40;;;;;;;;;;;;;;;46.06;28.36;100904.72;4913743;28;98636;-75
2023/07/08 11:54:30;;;;;;;;;;;;;;;46.01;28.34;100900.53;4932749;28;97971;-76
2023/07/08 11:56:56;;;;;;;;;;;;;;;44.39;29.22;100902.13;4927370;28;98668;-76
2023/07/08 11:59:24;;;;;;;;;;;;;;;43.52;29.18;100899.53;4948695;28;98318;-69
2023/07/08 12:02:11;;;;;;;;;;;;;;;42.86;29.48;100894.75;4938293;28;98340;-69
2023/07/08 12:04:56;;;;;;;;;;;;;;;42.17;29.78;100901.31;4949712;28;98381;-69
2023/07/08 12:07:33;;;;;;;;;;;;;;;41.43;30.18;100901.41;4924612;28;98375;-70
2023/07/08 12:10:23;;;;;;;;;;;;;;;41.08;30.16;100895.25;4916658;28;98399;-75
2023/07/08 12:12:50;;;;;;;;;;;;;;;40.52;30.56;100901.13;4956123;28;97983;-69
2023/07/08 12:15:24;;;;;;;;;;;;;;;40.10;30.74;100899.50;4936868;28;98852;-75
2023/07/08 12:17:55;;;;;;;;;;;;;;;39.68;30.46;100894.22;4923076;28;98483;-69
2023/07/08 12:20:26;;;;;;;;;;;;;;;39.38;30.88;100897.69;4917784;28;98216;-72
2023/07/08 12:22:52;;;;;;;;;;;;;;;39.08;30.80;100890.66;4933870;28;98141;-68
2023/07/08 12:25:21;;;;;;;;;;;;;;;38.82;30.76;100890.69;4920718;28;99047;-69
2023/07/08 12:27:47;;;;;;;;;;;;;;;39.70;29.98;100899.41;4918124;28;98406;-75
2023/07/08 12:30:14;;;;;;;;;;;;;;;40.79;29.03;100904.09;4892335;27;99354;-68
2023/07/08 12:32:40;;;;;;;;;;;;;;;41.24;28.92;100899.81;4888630;28;98693;-68
2023/07/08 12:35:22;;;;;;;;;;;;;;;41.62;28.77;100907.88;4899347;27;100985;-74
2023/07/08 12:37:50;;;;;;;;;;;;;;;42.19;28.03;100904.47;4923079;28;98100;-68
2023/07/08 12:40:16;;;;;;;;;;;;;;;41.55;28.58;100901.75;4924606;28;98049;-67
2023/07/08 12:42:48;;;;;;;;;;;;;;;41.82;28.40;100901.75;4936842;28;97909;-75
2023/07/08 12:45:15;;;;;;;;;;;;;;;41.00;29.18;100898.84;4919204;28;98235;-75
2023/07/08 12:47:42;;;;;;;;;;;;;;;40.95;29.14;100898.19;4939260;28;99545;-75